createdAt,value
2019-05-23T00:01:09.775Z,100.00
2019-05-23T00:03:58.924Z,100.00
2019-05-23T00:06:28.559Z,100.00
2019-05-23T00:08:58.383Z,100.00
2019-05-23T00:11:55.455Z,100.00
2019-05-23T00:14:43.324Z,100.00
2019-05-23T00:17:18.828Z,100.00
2019-05-23T00:19:50.112Z,100.00
2019-05-23T00:22:20.360Z,100.00
2019-05-23T00:24:50.361Z,100.00
2019-05-23T00:27:20.563Z,100.00
2019-05-23T00:29:51.532Z,100.00
2019-05-23T00:32:46.200Z,100.00
2019-05-23T00:35:17.476Z,100.00
2019-05-23T00:37:47.355Z,100.00
2019-05-23T00:40:17.975Z,100.00
2019-05-23T00:42:47.569Z,100.00
2019-05-23T00:45:18.482Z,100.00
2019-05-23T00:47:49.387Z,100.00
2019-05-23T00:50:21.390Z,100.00
2019-05-23T00:52:51.959Z,100.00
2019-05-23T00:55:22.192Z,100.00
2019-05-23T00:57:51.820Z,100.00
2019-05-23T01:00:22.830Z,100.00
2019-05-23T01:02:54.180Z,100.00
2019-05-23T01:05:24.241Z,100.00
2019-05-23T01:07:53.993Z,100.00
2019-05-23T01:10:23.636Z,100.00
2019-05-23T01:12:53.071Z,100.00
2019-05-23T01:15:24.397Z,100.00
2019-05-23T01:17:55.211Z,100.00
2019-05-23T01:20:45.072Z,100.00
2019-05-23T01:23:15.108Z,100.00
2019-05-23T01:25:44.852Z,100.00
2019-05-23T01:28:14.597Z,100.00
2019-05-23T01:30:46.554Z,100.00
2019-05-23T01:33:17.664Z,100.00
2019-05-23T01:35:46.981Z,100.00
2019-05-23T01:38:16.587Z,100.00
2019-05-23T01:40:46.117Z,100.00
2019-05-23T01:43:16.081Z,100.00
2019-05-23T01:45:46.565Z,100.00
2019-05-23T01:48:17.288Z,100.00
2019-05-23T01:50:46.604Z,100.00
2019-05-23T01:53:15.967Z,100.00
2019-05-23T01:55:46.828Z,100.00
2019-05-23T01:58:16.522Z,100.00
2019-05-23T02:00:47.253Z,100.00
2019-05-23T02:03:16.660Z,100.00
2019-05-23T02:05:46.690Z,100.00
2019-05-23T02:08:16.600Z,100.00
2019-05-23T02:10:46.977Z,100.00
2019-05-23T02:13:16.198Z,100.00
2019-05-23T02:15:45.624Z,100.00
2019-05-23T02:18:16.136Z,100.00
2019-05-23T02:20:46.236Z,100.00
2019-05-23T02:23:18.032Z,100.00
2019-05-23T02:25:48.665Z,100.00
2019-05-23T02:28:19.004Z,100.00
2019-05-23T02:30:48.396Z,100.00
2019-05-23T02:33:17.686Z,100.00
2019-05-23T02:35:46.922Z,100.00
2019-05-23T02:38:33.865Z,100.00
2019-05-23T02:41:22.072Z,100.00
2019-05-23T02:43:56.526Z,100.00
2019-05-23T02:46:51.147Z,100.00
2019-05-23T02:49:23.010Z,100.00
2019-05-23T02:51:53.702Z,100.00
2019-05-23T02:54:27.047Z,100.00
2019-05-23T02:56:59.269Z,100.00
2019-05-23T02:59:48.296Z,100.00
2019-05-23T03:02:47.863Z,100.00
2019-05-23T03:05:18.917Z,100.00
2019-05-23T03:07:48.163Z,100.00
2019-05-23T03:10:20.511Z,100.00
2019-05-23T03:12:52.874Z,100.00
2019-05-23T03:15:24.851Z,100.00
2019-05-23T03:17:56.791Z,100.00
2019-05-23T03:20:27.012Z,100.00
2019-05-23T03:23:08.591Z,100.00
2019-05-23T03:26:19.407Z,100.00
2019-05-23T03:28:49.899Z,100.00
2019-05-23T03:31:35.900Z,100.00
2019-05-23T03:34:08.023Z,100.00
2019-05-23T03:36:38.718Z,100.00
2019-05-23T03:39:09.557Z,100.00
2019-05-23T03:41:39.466Z,100.00
2019-05-23T03:44:10.168Z,100.00
2019-05-23T03:46:44.622Z,100.00
2019-05-23T03:49:14.871Z,100.00
2019-05-23T03:51:44.891Z,100.00
2019-05-23T03:54:15.158Z,100.00
2019-05-23T03:56:44.468Z,100.00
2019-05-23T03:59:14.330Z,100.00
2019-05-23T04:01:48.379Z,100.00
2019-05-23T04:04:16.150Z,100.00
2019-05-23T04:06:47.797Z,100.00
2019-05-23T04:09:17.729Z,100.00
2019-05-23T04:11:46.950Z,100.00
2019-05-23T04:14:17.382Z,100.00
2019-05-23T04:16:47.240Z,100.00
2019-05-23T04:19:17.688Z,100.00
2019-05-23T04:21:46.987Z,100.00
2019-05-23T04:24:16.932Z,100.00
2019-05-23T04:26:46.605Z,100.00
2019-05-23T04:29:15.838Z,100.00
2019-05-23T04:31:45.344Z,100.00
2019-05-23T04:34:15.110Z,100.00
2019-05-23T04:36:44.392Z,100.00
2019-05-23T04:39:14.318Z,100.00
2019-05-23T04:41:43.961Z,100.00
2019-05-23T04:44:13.454Z,100.00
2019-05-23T04:46:43.204Z,100.00
2019-05-23T04:49:12.789Z,100.00
2019-05-23T04:51:42.517Z,100.00
2019-05-23T04:54:12.378Z,100.00
2019-05-23T04:56:41.745Z,100.00
2019-05-23T04:59:11.460Z,100.00
2019-05-23T05:01:40.829Z,100.00
2019-05-23T05:04:10.551Z,100.00
2019-05-23T05:06:40.126Z,100.00
2019-05-23T05:09:11.440Z,100.00
2019-05-23T05:11:40.787Z,100.00
2019-05-23T05:14:10.291Z,100.00
2019-05-23T05:16:40.198Z,100.00
2019-05-23T05:19:09.430Z,100.00
2019-05-23T05:21:39.244Z,100.00
2019-05-23T05:24:08.434Z,100.00
2019-05-23T05:26:37.822Z,100.00
2019-05-23T05:29:07.093Z,100.00
2019-05-23T05:31:36.442Z,100.00
2019-05-23T05:34:05.882Z,100.00
2019-05-23T05:36:35.137Z,100.00
2019-05-23T05:39:06.944Z,100.00
2019-05-23T05:41:36.929Z,100.00
2019-05-23T05:44:06.857Z,100.00
2019-05-23T05:46:36.372Z,100.00
2019-05-23T05:49:06.822Z,100.00
2019-05-23T05:51:36.137Z,100.00
2019-05-23T05:54:05.891Z,100.00
2019-05-23T05:56:35.567Z,100.00
2019-05-23T05:59:05.016Z,100.00
2019-05-23T06:01:35.058Z,100.00
2019-05-23T06:04:05.360Z,100.00
2019-05-23T06:06:45.644Z,100.00
2019-05-23T06:09:26.216Z,100.00
2019-05-23T06:11:55.494Z,100.00
2019-05-23T06:14:24.930Z,100.00
2019-05-23T06:16:56.013Z,100.00
2019-05-23T06:19:25.517Z,100.00
2019-05-23T06:21:54.850Z,100.00
2019-05-23T06:24:41.683Z,100.00
2019-05-23T06:26:56.152Z,100.00
2019-05-23T06:29:25.832Z,100.00
2019-05-23T06:31:56.274Z,100.00
2019-05-23T06:34:25.812Z,100.00
2019-05-23T06:36:55.537Z,100.00
2019-05-23T06:39:25.412Z,100.00
2019-05-23T06:41:54.714Z,100.00
2019-05-23T06:44:24.097Z,100.00
2019-05-23T06:46:53.344Z,100.00
2019-05-23T06:49:22.725Z,100.00
2019-05-23T06:51:51.962Z,100.00
2019-05-23T06:54:21.227Z,100.00
2019-05-23T06:56:52.848Z,100.00
2019-05-23T06:59:22.433Z,100.00
2019-05-23T07:01:52.032Z,100.00
2019-05-23T07:04:21.866Z,100.00
2019-05-23T07:06:51.907Z,100.00
2019-05-23T07:09:21.613Z,100.00
2019-05-23T07:11:54.525Z,100.00
2019-05-23T07:14:23.973Z,100.00
2019-05-23T07:16:53.223Z,100.00
2019-05-23T07:19:22.519Z,100.00
2019-05-23T07:21:51.856Z,100.00
2019-05-23T07:24:22.319Z,100.00
2019-05-23T07:26:51.796Z,100.00
2019-05-23T07:29:25.548Z,100.00
2019-05-23T07:31:54.880Z,100.00
2019-05-23T07:34:25.321Z,100.00
2019-05-23T07:36:54.871Z,100.00
2019-05-23T07:39:24.150Z,100.00
2019-05-23T07:41:53.639Z,100.00
2019-05-23T07:44:23.361Z,100.00
2019-05-23T07:46:52.736Z,100.00
2019-05-23T07:49:21.983Z,100.00
2019-05-23T07:51:51.192Z,100.00
2019-05-23T07:54:32.978Z,100.00
2019-05-23T07:57:02.695Z,100.00
2019-05-23T07:59:35.270Z,100.00
2019-05-23T08:02:16.559Z,100.00
2019-05-23T08:04:45.935Z,100.00
2019-05-23T08:07:16.666Z,100.00
2019-05-23T08:09:46.059Z,100.00
2019-05-23T08:12:15.390Z,100.00
2019-05-23T08:14:44.870Z,100.00
2019-05-23T08:17:14.286Z,100.00
2019-05-23T08:19:49.647Z,100.00
2019-05-23T08:22:14.987Z,100.00
2019-05-23T08:24:44.251Z,100.00
2019-05-23T08:27:13.945Z,100.00
2019-05-23T08:29:43.300Z,100.00
2019-05-23T08:32:13.109Z,100.00
2019-05-23T08:34:43.034Z,100.00
2019-05-23T08:37:14.161Z,100.00
2019-05-23T08:39:44.399Z,100.00
2019-05-23T08:42:14.469Z,100.00
2019-05-23T08:44:44.675Z,100.00
2019-05-23T08:47:14.152Z,100.00
2019-05-23T08:49:43.464Z,100.00
2019-05-23T08:52:13.156Z,100.00
2019-05-23T08:54:43.809Z,100.00
2019-05-23T08:57:14.769Z,100.00
2019-05-23T08:59:44.021Z,100.00
2019-05-23T09:02:13.540Z,100.00
2019-05-23T09:05:02.285Z,100.00
2019-05-23T09:07:14.814Z,100.00
2019-05-23T09:09:44.703Z,100.00
2019-05-23T09:12:14.135Z,100.00
2019-05-23T09:14:44.361Z,100.00
2019-05-23T09:17:13.846Z,100.00
2019-05-23T09:19:43.320Z,100.00
2019-05-23T09:22:12.745Z,100.00
2019-05-23T09:24:42.057Z,100.00
2019-05-23T09:27:11.941Z,100.00
2019-05-23T09:29:42.075Z,100.00
2019-05-23T09:32:11.677Z,100.00
2019-05-23T09:34:40.888Z,100.00
2019-05-23T09:37:11.808Z,100.00
2019-05-23T09:39:41.955Z,100.00
2019-05-23T09:42:12.299Z,100.00
2019-05-23T09:44:41.939Z,100.00
2019-05-23T09:47:11.468Z,100.00
2019-05-23T09:49:40.732Z,100.00
2019-05-23T09:52:12.126Z,100.00
2019-05-23T09:54:41.740Z,100.00
2019-05-23T09:57:12.045Z,100.00
2019-05-23T09:59:41.325Z,100.00
2019-05-23T10:02:11.701Z,100.00
2019-05-23T10:04:41.012Z,100.00
2019-05-23T10:07:10.732Z,100.00
2019-05-23T10:09:39.915Z,95.24
2019-05-23T10:12:09.201Z,94.65
2019-05-23T10:14:39.265Z,88.09
2019-05-23T10:17:09.010Z,88.01
2019-05-23T10:19:38.509Z,89.55
2019-05-23T10:22:08.458Z,92.67
2019-05-23T10:24:37.825Z,97.56
2019-05-23T10:27:08.875Z,100.00
2019-05-23T10:29:38.293Z,100.00
2019-05-23T10:32:09.292Z,98.15
2019-05-23T10:34:39.208Z,100.00
2019-05-23T10:37:10.375Z,99.26
2019-05-23T10:39:41.115Z,83.39
2019-05-23T10:42:10.592Z,82.54
2019-05-23T10:44:39.875Z,78.79
2019-05-23T10:47:09.138Z,93.02
2019-05-23T10:49:38.516Z,80.94
2019-05-23T10:52:07.761Z,70.41
2019-05-23T10:54:37.041Z,69.97
2019-05-23T10:57:06.411Z,81.34
2019-05-23T10:59:35.719Z,83.16
2019-05-23T11:02:06.369Z,86.89
2019-05-23T11:04:36.101Z,85.60
2019-05-23T11:07:05.526Z,85.27
2019-05-23T11:09:38.333Z,83.31
2019-05-23T11:12:07.718Z,85.19
2019-05-23T11:14:37.502Z,85.40
2019-05-23T11:17:06.957Z,83.65
2019-05-23T11:19:36.313Z,84.17
2019-05-23T11:22:06.702Z,83.47
2019-05-23T11:24:36.037Z,81.17
2019-05-23T11:27:05.488Z,79.89
2019-05-23T11:29:34.783Z,78.18
2019-05-23T11:32:05.752Z,82.07
2019-05-23T11:34:36.242Z,79.21
2019-05-23T11:37:07.561Z,79.27
2019-05-23T11:39:41.978Z,73.40
2019-05-23T11:42:08.378Z,69.93
2019-05-23T11:44:37.654Z,70.76
2019-05-23T11:47:07.235Z,75.23
2019-05-23T11:49:36.542Z,78.75
2019-05-23T11:52:06.248Z,79.75
2019-05-23T11:54:36.412Z,69.95
2019-05-23T11:57:05.983Z,73.95
2019-05-23T11:59:35.444Z,69.49
2019-05-23T12:02:13.611Z,66.89
2019-05-23T12:04:44.153Z,71.49
2019-05-23T12:09:49.314Z,69.60
2019-05-23T12:12:18.785Z,71.63
2019-05-23T12:14:48.074Z,75.39
2019-05-23T12:17:19.655Z,72.48
2019-05-23T12:19:49.392Z,69.11
2019-05-23T12:22:18.780Z,66.13
2019-05-23T12:24:48.116Z,71.51
2019-05-23T12:27:17.580Z,72.70
2019-05-23T12:29:47.134Z,76.30
2019-05-23T12:32:16.688Z,76.90
2019-05-23T12:35:08.123Z,74.19
2019-05-23T12:37:20.396Z,71.76
2019-05-23T12:39:49.364Z,71.41
2019-05-23T12:42:18.823Z,69.73
2019-05-23T12:44:48.167Z,70.47
2019-05-23T12:47:27.433Z,67.11
2019-05-23T12:50:02.468Z,65.08
2019-05-23T12:52:32.783Z,71.68
2019-05-23T12:55:02.049Z,68.42
2019-05-23T12:57:31.516Z,66.91
2019-05-23T13:00:00.831Z,63.58
2019-05-23T13:02:31.008Z,60.83
2019-05-23T13:05:00.677Z,63.13
2019-05-23T13:07:36.238Z,59.48
2019-05-23T13:10:01.931Z,60.65
2019-05-23T13:12:31.726Z,60.84
2019-05-23T13:15:01.007Z,57.87
2019-05-23T13:17:30.726Z,55.21
2019-05-23T13:20:00.002Z,57.82
2019-05-23T13:22:29.483Z,55.42
2019-05-23T13:24:58.752Z,54.52
2019-05-23T13:27:29.229Z,52.19
2019-05-23T13:29:58.553Z,46.68
2019-05-23T13:32:27.998Z,49.53
2019-05-23T13:34:57.302Z,47.72
2019-05-23T13:37:27.003Z,49.40
2019-05-23T13:40:00.175Z,44.22
2019-05-23T13:42:29.621Z,41.92
2019-05-23T13:45:19.822Z,46.06
2019-05-23T13:47:49.335Z,44.75
2019-05-23T13:50:19.040Z,40.79
2019-05-23T13:52:48.431Z,43.11
2019-05-23T13:55:18.347Z,52.22
2019-05-23T13:58:05.101Z,51.81
2019-05-23T14:00:35.647Z,44.27
2019-05-23T14:03:05.086Z,44.10
2019-05-23T14:05:34.688Z,47.91
2019-05-23T14:08:12.159Z,48.53
2019-05-23T14:10:35.203Z,46.04
2019-05-23T14:13:07.149Z,40.46
2019-05-23T14:15:40.819Z,39.35
2019-05-23T14:18:11.734Z,42.60
2019-05-23T14:20:41.308Z,43.14
2019-05-23T14:23:24.898Z,39.88
2019-05-23T14:29:38.803Z,36.96
2019-05-23T14:34:45.549Z,40.19
2019-05-23T14:37:23.825Z,40.74
2019-05-23T14:39:56.859Z,42.64
2019-05-23T14:42:52.736Z,43.02
2019-05-23T14:45:46.456Z,39.48
2019-05-23T14:48:27.620Z,37.47
2019-05-23T14:51:11.895Z,40.47
2019-05-23T14:53:42.761Z,38.57
2019-05-23T14:56:15.163Z,38.87
2019-05-23T14:58:46.682Z,36.33
2019-05-23T15:01:15.984Z,37.75
2019-05-23T15:06:24.363Z,38.41
2019-05-23T15:09:00.122Z,40.16
2019-05-23T15:11:30.211Z,41.42
2019-05-23T15:14:00.976Z,38.09
2019-05-23T15:16:35.333Z,39.30
2019-05-23T15:19:07.398Z,39.55
2019-05-23T15:21:36.912Z,37.34
2019-05-23T15:24:06.860Z,39.90
2019-05-23T15:26:36.257Z,39.66
2019-05-23T15:29:06.291Z,39.15
2019-05-23T15:31:37.961Z,37.46
2019-05-23T15:34:07.323Z,36.53
2019-05-23T15:36:37.468Z,36.07
2019-05-23T15:39:19.157Z,36.62
2019-05-23T15:41:48.682Z,35.94
2019-05-23T15:44:26.916Z,35.76
2019-05-23T15:46:59.595Z,36.95
2019-05-23T15:49:38.154Z,36.12
2019-05-23T15:52:26.263Z,36.67
2019-05-23T15:55:29.193Z,37.90
2019-05-23T15:58:13.948Z,37.57
2019-05-23T16:00:56.016Z,37.42
2019-05-23T16:03:50.628Z,36.17
2019-05-23T16:06:21.631Z,38.27
2019-05-23T16:08:52.831Z,38.68
2019-05-23T16:11:22.259Z,40.30
2019-05-23T16:14:32.213Z,37.55
2019-05-23T16:17:03.164Z,36.24
2019-05-23T16:19:32.813Z,40.77
2019-05-23T16:22:02.724Z,42.01
2019-05-23T16:24:32.211Z,41.13
2019-05-23T16:27:01.885Z,42.00
2019-05-23T16:29:38.725Z,44.53
2019-05-23T16:34:55.549Z,46.45
2019-05-23T16:37:29.697Z,45.39
2019-05-23T16:39:59.551Z,48.15
2019-05-23T16:42:31.249Z,48.68
2019-05-23T16:56:21.342Z,45.79
2019-05-23T16:59:15.862Z,46.70
2019-05-23T17:02:07.037Z,48.44
2019-05-23T17:04:42.203Z,50.80
2019-05-23T17:07:36.172Z,54.34
2019-05-23T17:10:10.912Z,53.86
2019-05-23T17:12:48.955Z,54.50
2019-05-23T17:15:41.169Z,53.11
2019-05-23T17:18:37.994Z,50.40
2019-05-23T17:21:29.640Z,48.78
2019-05-23T17:24:05.286Z,50.32
2019-05-23T17:29:37.648Z,51.67
2019-05-23T17:32:15.094Z,51.03
2019-05-23T17:37:22.744Z,55.77
2019-05-23T17:43:38.594Z,55.12
2019-05-23T17:46:08.253Z,54.67
2019-05-23T17:51:18.157Z,53.68
2019-05-23T17:54:05.918Z,53.76
2019-05-23T17:56:47.634Z,51.53
2019-05-23T17:59:17.096Z,49.71
2019-05-23T18:01:47.410Z,48.26
2019-05-23T18:04:32.090Z,48.19
2019-05-23T18:07:02.864Z,46.97
2019-05-23T18:09:41.904Z,48.59
2019-05-23T18:12:18.174Z,49.17
2019-05-23T18:14:48.466Z,47.06
2019-05-23T18:17:18.011Z,45.14
2019-05-23T18:19:48.098Z,45.00
2019-05-23T18:22:18.453Z,44.80
2019-05-23T18:24:48.723Z,45.18
2019-05-23T18:27:19.732Z,45.56
2019-05-23T18:29:49.405Z,44.34
2019-05-23T18:32:22.789Z,45.53
2019-05-23T18:34:52.959Z,48.09
2019-05-23T18:37:22.544Z,48.99
2019-05-23T18:39:52.184Z,52.20
2019-05-23T18:42:22.106Z,51.63
2019-05-23T18:44:52.711Z,53.73
2019-05-23T18:47:31.643Z,54.49
2019-05-23T18:50:01.460Z,58.86
2019-05-23T18:52:30.783Z,62.08
2019-05-23T18:55:00.427Z,67.87
2019-05-23T18:57:29.995Z,69.34
2019-05-23T18:59:59.811Z,73.01
2019-05-23T19:02:30.105Z,69.48
2019-05-23T19:04:59.660Z,68.44
2019-05-23T19:07:29.134Z,72.12
2019-05-23T19:09:58.662Z,71.60
2019-05-23T19:12:28.282Z,71.47
2019-05-23T19:14:57.515Z,73.13
2019-05-23T19:17:26.893Z,72.03
2019-05-23T19:19:56.706Z,72.70
2019-05-23T19:22:26.897Z,75.40
2019-05-23T19:24:56.510Z,75.40
2019-05-23T19:27:25.738Z,76.50
2019-05-23T19:29:55.227Z,78.06
2019-05-23T19:32:26.256Z,78.83
2019-05-23T19:34:56.492Z,80.23
2019-05-23T19:37:27.109Z,80.91
2019-05-23T19:39:56.748Z,84.38
2019-05-23T19:42:29.280Z,85.91
2019-05-23T19:45:02.232Z,90.29
2019-05-23T19:47:31.645Z,88.54
2019-05-23T19:50:03.203Z,89.44
2019-05-23T19:52:32.766Z,93.41
2019-05-23T19:55:05.237Z,100.00
2019-05-23T19:57:36.173Z,100.00
2019-05-23T20:00:09.068Z,100.00
2019-05-23T20:02:47.525Z,100.00
2019-05-23T20:05:23.456Z,100.00
2019-05-23T20:07:52.802Z,100.00
2019-05-23T20:10:22.614Z,100.00
2019-05-23T20:12:51.933Z,100.00
2019-05-23T20:15:22.148Z,100.00
2019-05-23T20:17:52.362Z,100.00
2019-05-23T20:20:22.988Z,100.00
2019-05-23T20:22:57.258Z,100.00
2019-05-23T20:25:26.871Z,100.00
2019-05-23T20:27:56.236Z,100.00
2019-05-23T20:30:54.956Z,100.00
2019-05-23T20:33:26.335Z,100.00
2019-05-23T20:35:55.855Z,100.00
2019-05-23T20:38:26.520Z,100.00
2019-05-23T20:40:56.704Z,100.00
2019-05-23T20:43:25.993Z,100.00
2019-05-23T20:45:55.311Z,100.00
2019-05-23T20:48:25.924Z,100.00
2019-05-23T20:50:57.760Z,100.00
2019-05-23T20:53:28.167Z,100.00
2019-05-23T20:55:58.539Z,100.00
2019-05-23T20:58:29.057Z,100.00
2019-05-23T21:01:08.357Z,100.00
2019-05-23T21:03:37.970Z,100.00
2019-05-23T21:06:08.717Z,100.00
2019-05-23T21:08:38.026Z,100.00
2019-05-23T21:11:07.295Z,100.00
2019-05-23T21:13:36.900Z,100.00
2019-05-23T21:16:08.760Z,100.00
2019-05-23T21:18:40.501Z,100.00
2019-05-23T21:21:09.986Z,100.00
2019-05-23T21:23:39.337Z,100.00
2019-05-23T21:26:09.598Z,100.00
2019-05-23T21:28:40.097Z,100.00
2019-05-23T21:31:17.980Z,100.00
2019-05-23T21:33:47.321Z,100.00
2019-05-23T21:36:16.909Z,100.00
2019-05-23T21:38:46.456Z,100.00
2019-05-23T21:41:15.815Z,100.00
2019-05-23T21:43:46.676Z,100.00
2019-05-23T21:46:16.106Z,100.00
2019-05-23T21:48:45.495Z,100.00
2019-05-23T21:51:14.773Z,100.00
2019-05-23T21:53:44.367Z,100.00
2019-05-23T21:56:13.652Z,100.00
2019-05-23T21:58:42.941Z,100.00
2019-05-23T22:01:48.250Z,100.00
2019-05-23T22:04:36.682Z,100.00
2019-05-23T22:07:07.134Z,100.00
2019-05-23T22:09:36.437Z,100.00
2019-05-23T22:12:06.976Z,100.00
2019-05-23T22:14:36.692Z,100.00
2019-05-23T22:17:06.051Z,100.00
2019-05-23T22:19:35.372Z,100.00
2019-05-23T22:22:10.446Z,100.00
2019-05-23T22:24:39.737Z,100.00
2019-05-23T22:27:11.369Z,100.00
2019-05-23T22:29:40.993Z,100.00
2019-05-23T22:32:11.900Z,100.00
2019-05-23T22:34:52.660Z,100.00
2019-05-23T22:37:26.581Z,100.00
2019-05-23T22:39:55.817Z,100.00
2019-05-23T22:42:26.742Z,100.00
2019-05-23T22:44:56.151Z,100.00
2019-05-23T22:47:25.727Z,100.00
2019-05-23T22:49:55.297Z,100.00
2019-05-23T22:52:24.550Z,100.00
2019-05-23T22:54:53.796Z,100.00
2019-05-23T22:57:23.081Z,100.00
2019-05-23T22:59:52.358Z,100.00
2019-05-23T23:02:21.729Z,100.00
2019-05-23T23:04:50.994Z,100.00
2019-05-23T23:07:21.199Z,100.00
2019-05-23T23:09:50.529Z,100.00
2019-05-23T23:12:19.823Z,100.00
2019-05-23T23:14:49.397Z,100.00
2019-05-23T23:17:19.582Z,100.00
2019-05-23T23:19:48.838Z,100.00
2019-05-23T23:22:18.431Z,100.00
2019-05-23T23:24:47.980Z,100.00
2019-05-23T23:27:17.279Z,100.00
2019-05-23T23:29:46.565Z,100.00
2019-05-23T23:32:15.844Z,100.00
2019-05-23T23:34:45.118Z,100.00
2019-05-23T23:37:14.451Z,100.00
2019-05-23T23:39:43.938Z,100.00
2019-05-23T23:42:13.471Z,100.00
2019-05-23T23:44:42.000Z,100.00
2019-05-23T23:47:28.564Z,100.00
2019-05-23T23:50:15.449Z,100.00
2019-05-23T23:53:02.087Z,100.00
2019-05-23T23:55:49.284Z,100.00
2019-05-23T23:58:17.648Z,100.00
